sensor_id;sensor_type;location;lat;lon;timestamp;P1;durP1;ratioP1;P2;durP2;ratioP2
3085;SDS011;52812;48.960;9.108;2023-02-23T00:01:35;32.37;;;16.40;;
3085;SDS011;52812;48.960;9.108;2023-02-23T00:04:02;29.23;;;17.13;;
3085;SDS011;52812;48.960;9.108;2023-02-23T00:06:29;29.57;;;17.03;;
3085;SDS011;52812;48.960;9.108;2023-02-23T00:08:55;30.70;;;17.70;;
3085;SDS011;52812;48.960;9.108;2023-02-23T00:11:25;28.20;;;18.17;;
3085;SDS011;52812;48.960;9.108;2023-02-23T00:13:52;32.87;;;18.60;;
3085;SDS011;52812;48.960;9.108;2023-02-23T00:16:19;34.03;;;19.53;;
3085;SDS011;52812;48.960;9.108;2023-02-23T00:18:47;35.83;;;19.93;;
3085;SDS011;52812;48.960;9.108;2023-02-23T00:21:19;30.27;;;18.70;;
3085;SDS011;52812;48.960;9.108;2023-02-23T00:23:53;32.47;;;18.80;;
3085;SDS011;52812;48.960;9.108;2023-02-23T00:26:27;31.40;;;18.10;;
3085;SDS011;52812;48.960;9.108;2023-02-23T00:28:56;31.93;;;18.10;;
3085;SDS011;52812;48.960;9.108;2023-02-23T00:31:22;26.23;;;17.20;;
3085;SDS011;52812;48.960;9.108;2023-02-23T00:33:51;31.50;;;18.63;;
3085;SDS011;52812;48.960;9.108;2023-02-23T00:36:18;25.43;;;16.57;;
3085;SDS011;52812;48.960;9.108;2023-02-23T00:38:45;30.50;;;17.73;;
3085;SDS011;52812;48.960;9.108;2023-02-23T00:41:12;26.10;;;16.80;;
3085;SDS011;52812;48.960;9.108;2023-02-23T00:43:44;29.90;;;18.00;;
3085;SDS011;52812;48.960;9.108;2023-02-23T00:46:11;34.90;;;19.23;;
3085;SDS011;52812;48.960;9.108;2023-02-23T00:48:40;26.70;;;17.30;;
3085;SDS011;52812;48.960;9.108;2023-02-23T00:51:06;29.73;;;17.93;;
3085;SDS011;52812;48.960;9.108;2023-02-23T00:53:31;27.90;;;17.80;;
3085;SDS011;52812;48.960;9.108;2023-02-23T00:55:57;31.00;;;17.70;;
3085;SDS011;52812;48.960;9.108;2023-02-23T00:58:24;33.13;;;18.97;;
3085;SDS011;52812;48.960;9.108;2023-02-23T01:00:50;41.50;;;19.27;;
3085;SDS011;52812;48.960;9.108;2023-02-23T01:03:17;36.57;;;19.50;;
3085;SDS011;52812;48.960;9.108;2023-02-23T01:05:43;32.40;;;18.20;;
3085;SDS011;52812;48.960;9.108;2023-02-23T01:08:10;35.60;;;19.83;;
3085;SDS011;52812;48.960;9.108;2023-02-23T01:10:39;36.60;;;19.40;;
3085;SDS011;52812;48.960;9.108;2023-02-23T01:13:07;28.80;;;18.37;;
3085;SDS011;52812;48.960;9.108;2023-02-23T01:15:34;33.20;;;20.20;;
3085;SDS011;52812;48.960;9.108;2023-02-23T01:18:05;36.30;;;20.60;;
3085;SDS011;52812;48.960;9.108;2023-02-23T01:20:33;35.47;;;20.20;;
3085;SDS011;52812;48.960;9.108;2023-02-23T01:23:00;30.33;;;18.63;;
3085;SDS011;52812;48.960;9.108;2023-02-23T01:25:26;30.83;;;18.80;;
3085;SDS011;52812;48.960;9.108;2023-02-23T01:27:55;29.57;;;17.93;;
3085;SDS011;52812;48.960;9.108;2023-02-23T01:30:21;30.27;;;19.03;;
3085;SDS011;52812;48.960;9.108;2023-02-23T01:32:47;33.97;;;20.20;;
3085;SDS011;52812;48.960;9.108;2023-02-23T01:35:12;33.10;;;18.70;;
3085;SDS011;52812;48.960;9.108;2023-02-23T01:37:39;30.17;;;18.50;;
3085;SDS011;52812;48.960;9.108;2023-02-23T01:40:09;33.20;;;19.27;;
3085;SDS011;52812;48.960;9.108;2023-02-23T01:42:40;28.63;;;17.60;;
3085;SDS011;52812;48.960;9.108;2023-02-23T01:47:49;28.40;;;18.40;;
3085;SDS011;52812;48.960;9.108;2023-02-23T01:50:17;34.70;;;19.50;;
3085;SDS011;52812;48.960;9.108;2023-02-23T01:52:44;36.73;;;18.70;;
3085;SDS011;52812;48.960;9.108;2023-02-23T01:55:11;32.70;;;18.47;;
3085;SDS011;52812;48.960;9.108;2023-02-23T01:57:39;29.13;;;18.40;;
3085;SDS011;52812;48.960;9.108;2023-02-23T02:00:06;31.87;;;18.20;;
3085;SDS011;52812;48.960;9.108;2023-02-23T02:02:39;33.00;;;18.00;;
3085;SDS011;52812;48.960;9.108;2023-02-23T02:05:05;28.87;;;18.73;;
3085;SDS011;52812;48.960;9.108;2023-02-23T02:07:37;32.20;;;19.20;;
3085;SDS011;52812;48.960;9.108;2023-02-23T02:10:04;30.70;;;18.47;;
3085;SDS011;52812;48.960;9.108;2023-02-23T02:12:43;31.07;;;18.30;;
3085;SDS011;52812;48.960;9.108;2023-02-23T02:15:10;35.03;;;19.17;;
3085;SDS011;52812;48.960;9.108;2023-02-23T02:20:45;30.37;;;17.80;;
3085;SDS011;52812;48.960;9.108;2023-02-23T02:23:34;32.40;;;18.40;;
3085;SDS011;52812;48.960;9.108;2023-02-23T02:29:31;32.90;;;19.70;;
3085;SDS011;52812;48.960;9.108;2023-02-23T02:32:06;31.83;;;18.30;;
3085;SDS011;52812;48.960;9.108;2023-02-23T02:43:25;30.70;;;18.13;;
3085;SDS011;52812;48.960;9.108;2023-02-23T02:46:07;29.60;;;18.47;;
3085;SDS011;52812;48.960;9.108;2023-02-23T02:48:50;31.27;;;17.93;;
3085;SDS011;52812;48.960;9.108;2023-02-23T02:56:55;32.57;;;18.93;;
3085;SDS011;52812;48.960;9.108;2023-02-23T02:59:24;31.67;;;19.33;;
3085;SDS011;52812;48.960;9.108;2023-02-23T03:02:14;31.43;;;18.20;;
3085;SDS011;52812;48.960;9.108;2023-02-23T03:05:01;29.80;;;18.40;;
3085;SDS011;52812;48.960;9.108;2023-02-23T03:07:53;32.97;;;18.97;;
3085;SDS011;52812;48.960;9.108;2023-02-23T03:11:01;30.23;;;17.93;;
3085;SDS011;52812;48.960;9.108;2023-02-23T03:13:52;29.83;;;17.73;;
3085;SDS011;52812;48.960;9.108;2023-02-23T03:16:56;30.40;;;17.97;;
3085;SDS011;52812;48.960;9.108;2023-02-23T03:22:39;33.07;;;19.60;;
3085;SDS011;52812;48.960;9.108;2023-02-23T03:25:47;34.03;;;18.70;;
3085;SDS011;52812;48.960;9.108;2023-02-23T03:31:45;31.33;;;17.90;;
3085;SDS011;52812;48.960;9.108;2023-02-23T03:35:00;27.13;;;18.20;;
3085;SDS011;52812;48.960;9.108;2023-02-23T03:37:59;29.73;;;17.67;;
3085;SDS011;52812;48.960;9.108;2023-02-23T03:40:54;28.57;;;17.40;;
3085;SDS011;52812;48.960;9.108;2023-02-23T03:44:02;26.50;;;17.20;;
3085;SDS011;52812;48.960;9.108;2023-02-23T03:46:47;30.43;;;17.80;;
3085;SDS011;52812;48.960;9.108;2023-02-23T03:49:33;30.53;;;17.73;;
3085;SDS011;52812;48.960;9.108;2023-02-23T03:52:25;29.67;;;17.33;;
3085;SDS011;52812;48.960;9.108;2023-02-23T03:55:22;30.83;;;18.27;;
3085;SDS011;52812;48.960;9.108;2023-02-23T03:58:11;30.60;;;17.80;;
3085;SDS011;52812;48.960;9.108;2023-02-23T04:00:59;29.57;;;18.90;;
3085;SDS011;52812;48.960;9.108;2023-02-23T04:03:48;33.90;;;19.30;;
3085;SDS011;52812;48.960;9.108;2023-02-23T04:06:35;30.80;;;18.07;;
3085;SDS011;52812;48.960;9.108;2023-02-23T04:09:23;29.33;;;17.27;;
3085;SDS011;52812;48.960;9.108;2023-02-23T04:17:50;29.37;;;17.20;;
3085;SDS011;52812;48.960;9.108;2023-02-23T04:20:17;32.80;;;18.83;;
3085;SDS011;52812;48.960;9.108;2023-02-23T04:22:42;32.87;;;18.27;;
3085;SDS011;52812;48.960;9.108;2023-02-23T04:25:08;28.73;;;18.30;;
3085;SDS011;52812;48.960;9.108;2023-02-23T04:27:34;32.93;;;19.13;;
3085;SDS011;52812;48.960;9.108;2023-02-23T04:30:00;29.03;;;17.50;;
3085;SDS011;52812;48.960;9.108;2023-02-23T04:32:27;31.60;;;18.40;;
3085;SDS011;52812;48.960;9.108;2023-02-23T04:34:54;30.20;;;18.20;;
3085;SDS011;52812;48.960;9.108;2023-02-23T04:37:19;31.03;;;17.53;;
3085;SDS011;52812;48.960;9.108;2023-02-23T04:39:45;28.80;;;17.40;;
3085;SDS011;52812;48.960;9.108;2023-02-23T04:42:14;28.97;;;17.80;;
3085;SDS011;52812;48.960;9.108;2023-02-23T04:44:40;27.47;;;17.20;;
3085;SDS011;52812;48.960;9.108;2023-02-23T04:47:05;31.60;;;17.83;;
3085;SDS011;52812;48.960;9.108;2023-02-23T04:49:31;31.40;;;18.37;;
3085;SDS011;52812;48.960;9.108;2023-02-23T04:51:56;29.67;;;17.83;;
3085;SDS011;52812;48.960;9.108;2023-02-23T04:54:22;30.73;;;17.67;;
3085;SDS011;52812;48.960;9.108;2023-02-23T04:56:47;30.00;;;18.30;;
3085;SDS011;52812;48.960;9.108;2023-02-23T04:59:13;28.93;;;17.50;;
3085;SDS011;52812;48.960;9.108;2023-02-23T05:01:39;29.97;;;16.50;;
3085;SDS011;52812;48.960;9.108;2023-02-23T05:04:04;29.80;;;17.27;;
3085;SDS011;52812;48.960;9.108;2023-02-23T05:06:30;28.87;;;17.63;;
3085;SDS011;52812;48.960;9.108;2023-02-23T05:08:56;29.83;;;18.10;;
3085;SDS011;52812;48.960;9.108;2023-02-23T05:11:22;30.57;;;17.30;;
3085;SDS011;52812;48.960;9.108;2023-02-23T05:13:48;30.13;;;18.33;;
3085;SDS011;52812;48.960;9.108;2023-02-23T05:16:14;28.80;;;17.93;;
3085;SDS011;52812;48.960;9.108;2023-02-23T05:18:40;32.50;;;18.60;;
3085;SDS011;52812;48.960;9.108;2023-02-23T05:21:06;32.90;;;17.40;;
3085;SDS011;52812;48.960;9.108;2023-02-23T05:23:33;28.17;;;17.17;;
3085;SDS011;52812;48.960;9.108;2023-02-23T05:26:00;29.17;;;17.00;;
3085;SDS011;52812;48.960;9.108;2023-02-23T05:28:31;30.87;;;16.60;;
3085;SDS011;52812;48.960;9.108;2023-02-23T05:30:58;27.40;;;17.20;;
3085;SDS011;52812;48.960;9.108;2023-02-23T05:33:24;29.13;;;17.30;;
3085;SDS011;52812;48.960;9.108;2023-02-23T05:35:50;32.43;;;19.30;;
3085;SDS011;52812;48.960;9.108;2023-02-23T05:38:15;30.03;;;17.97;;
3085;SDS011;52812;48.960;9.108;2023-02-23T05:40:41;28.17;;;16.67;;
3085;SDS011;52812;48.960;9.108;2023-02-23T05:43:07;27.50;;;16.47;;
3085;SDS011;52812;48.960;9.108;2023-02-23T05:45:32;28.57;;;17.30;;
3085;SDS011;52812;48.960;9.108;2023-02-23T05:47:58;32.47;;;17.80;;
3085;SDS011;52812;48.960;9.108;2023-02-23T05:50:24;30.10;;;18.77;;
3085;SDS011;52812;48.960;9.108;2023-02-23T05:52:50;29.27;;;18.20;;
3085;SDS011;52812;48.960;9.108;2023-02-23T05:55:16;31.27;;;18.17;;
3085;SDS011;52812;48.960;9.108;2023-02-23T05:57:42;33.67;;;18.17;;
3085;SDS011;52812;48.960;9.108;2023-02-23T06:00:08;27.30;;;16.47;;
3085;SDS011;52812;48.960;9.108;2023-02-23T06:02:35;32.88;;;19.38;;
3085;SDS011;52812;48.960;9.108;2023-02-23T06:05:01;28.40;;;18.27;;
3085;SDS011;52812;48.960;9.108;2023-02-23T06:07:27;31.90;;;18.23;;
3085;SDS011;52812;48.960;9.108;2023-02-23T06:09:52;30.77;;;18.30;;
3085;SDS011;52812;48.960;9.108;2023-02-23T06:12:18;31.00;;;18.20;;
3085;SDS011;52812;48.960;9.108;2023-02-23T06:14:44;30.30;;;18.47;;
3085;SDS011;52812;48.960;9.108;2023-02-23T06:17:09;27.43;;;17.10;;
3085;SDS011;52812;48.960;9.108;2023-02-23T06:19:35;27.13;;;17.80;;
3085;SDS011;52812;48.960;9.108;2023-02-23T06:22:00;30.23;;;16.70;;
3085;SDS011;52812;48.960;9.108;2023-02-23T06:24:26;27.70;;;17.73;;
3085;SDS011;52812;48.960;9.108;2023-02-23T06:26:52;29.00;;;17.70;;
3085;SDS011;52812;48.960;9.108;2023-02-23T06:29:17;27.17;;;17.07;;
3085;SDS011;52812;48.960;9.108;2023-02-23T06:31:43;31.30;;;18.00;;
3085;SDS011;52812;48.960;9.108;2023-02-23T06:34:08;33.43;;;18.30;;
3085;SDS011;52812;48.960;9.108;2023-02-23T06:36:35;28.87;;;18.50;;
3085;SDS011;52812;48.960;9.108;2023-02-23T06:39:02;34.80;;;19.10;;
3085;SDS011;52812;48.960;9.108;2023-02-23T06:41:28;34.97;;;18.27;;
3085;SDS011;52812;48.960;9.108;2023-02-23T06:43:55;29.63;;;19.30;;
3085;SDS011;52812;48.960;9.108;2023-02-23T06:46:20;35.40;;;18.90;;
3085;SDS011;52812;48.960;9.108;2023-02-23T06:48:46;33.67;;;18.97;;
3085;SDS011;52812;48.960;9.108;2023-02-23T06:51:12;30.83;;;18.97;;
3085;SDS011;52812;48.960;9.108;2023-02-23T06:53:37;34.20;;;19.53;;
3085;SDS011;52812;48.960;9.108;2023-02-23T06:56:03;35.87;;;19.17;;
3085;SDS011;52812;48.960;9.108;2023-02-23T06:58:29;29.63;;;18.83;;
3085;SDS011;52812;48.960;9.108;2023-02-23T07:00:55;31.63;;;17.90;;
3085;SDS011;52812;48.960;9.108;2023-02-23T07:03:24;36.50;;;17.90;;
3085;SDS011;52812;48.960;9.108;2023-02-23T07:05:50;25.63;;;16.73;;
3085;SDS011;52812;48.960;9.108;2023-02-23T07:08:17;31.70;;;17.67;;
3085;SDS011;52812;48.960;9.108;2023-02-23T07:10:43;31.67;;;19.07;;
3085;SDS011;52812;48.960;9.108;2023-02-23T07:13:10;39.17;;;22.40;;
3085;SDS011;52812;48.960;9.108;2023-02-23T07:15:39;29.10;;;18.57;;
3085;SDS011;52812;48.960;9.108;2023-02-23T07:18:05;30.30;;;17.37;;
3085;SDS011;52812;48.960;9.108;2023-02-23T07:20:31;28.97;;;17.37;;
3085;SDS011;52812;48.960;9.108;2023-02-23T07:22:57;30.50;;;16.40;;
3085;SDS011;52812;48.960;9.108;2023-02-23T07:25:24;29.67;;;16.50;;
3085;SDS011;52812;48.960;9.108;2023-02-23T07:27:51;28.37;;;16.53;;
3085;SDS011;52812;48.960;9.108;2023-02-23T07:30:18;27.57;;;16.73;;
3085;SDS011;52812;48.960;9.108;2023-02-23T07:32:44;33.93;;;18.20;;
3085;SDS011;52812;48.960;9.108;2023-02-23T07:35:10;30.20;;;18.73;;
3085;SDS011;52812;48.960;9.108;2023-02-23T07:37:35;32.10;;;17.53;;
3085;SDS011;52812;48.960;9.108;2023-02-23T07:40:01;30.83;;;17.97;;
3085;SDS011;52812;48.960;9.108;2023-02-23T07:42:27;30.00;;;18.30;;
3085;SDS011;52812;48.960;9.108;2023-02-23T07:44:53;34.07;;;19.73;;
3085;SDS011;52812;48.960;9.108;2023-02-23T07:47:19;34.63;;;20.53;;
3085;SDS011;52812;48.960;9.108;2023-02-23T07:49:44;32.77;;;19.60;;
3085;SDS011;52812;48.960;9.108;2023-02-23T07:52:10;32.67;;;20.23;;
3085;SDS011;52812;48.960;9.108;2023-02-23T07:54:35;30.73;;;19.73;;
3085;SDS011;52812;48.960;9.108;2023-02-23T07:57:01;31.67;;;18.47;;
3085;SDS011;52812;48.960;9.108;2023-02-23T07:59:26;27.23;;;17.20;;
3085;SDS011;52812;48.960;9.108;2023-02-23T08:01:52;31.30;;;17.00;;
3085;SDS011;52812;48.960;9.108;2023-02-23T08:04:17;29.37;;;16.97;;
3085;SDS011;52812;48.960;9.108;2023-02-23T08:06:43;32.00;;;18.17;;
3085;SDS011;52812;48.960;9.108;2023-02-23T08:09:09;31.73;;;18.70;;
3085;SDS011;52812;48.960;9.108;2023-02-23T08:11:35;31.30;;;21.27;;
3085;SDS011;52812;48.960;9.108;2023-02-23T08:14:04;30.10;;;18.57;;
3085;SDS011;52812;48.960;9.108;2023-02-23T08:16:34;29.93;;;18.30;;
3085;SDS011;52812;48.960;9.108;2023-02-23T08:19:00;31.47;;;18.33;;
3085;SDS011;52812;48.960;9.108;2023-02-23T08:21:27;36.00;;;20.50;;
3085;SDS011;52812;48.960;9.108;2023-02-23T08:23:53;35.83;;;20.63;;
3085;SDS011;52812;48.960;9.108;2023-02-23T08:26:19;32.60;;;20.50;;
3085;SDS011;52812;48.960;9.108;2023-02-23T08:28:45;32.83;;;20.33;;
3085;SDS011;52812;48.960;9.108;2023-02-23T08:31:11;35.20;;;21.00;;
3085;SDS011;52812;48.960;9.108;2023-02-23T08:33:38;36.20;;;21.07;;
3085;SDS011;52812;48.960;9.108;2023-02-23T08:36:05;38.27;;;20.30;;
3085;SDS011;52812;48.960;9.108;2023-02-23T08:38:31;45.23;;;20.93;;
3085;SDS011;52812;48.960;9.108;2023-02-23T08:41:00;36.97;;;21.37;;
3085;SDS011;52812;48.960;9.108;2023-02-23T08:43:26;30.90;;;20.10;;
3085;SDS011;52812;48.960;9.108;2023-02-23T08:45:52;34.60;;;20.60;;
3085;SDS011;52812;48.960;9.108;2023-02-23T08:48:18;35.77;;;21.00;;
3085;SDS011;52812;48.960;9.108;2023-02-23T08:50:46;30.73;;;19.80;;
3085;SDS011;52812;48.960;9.108;2023-02-23T08:53:14;35.00;;;20.70;;
3085;SDS011;52812;48.960;9.108;2023-02-23T08:55:40;35.67;;;20.40;;
3085;SDS011;52812;48.960;9.108;2023-02-23T08:58:09;29.30;;;18.40;;
3085;SDS011;52812;48.960;9.108;2023-02-23T09:00:38;31.40;;;19.90;;
3085;SDS011;52812;48.960;9.108;2023-02-23T09:03:04;39.03;;;19.90;;
3085;SDS011;52812;48.960;9.108;2023-02-23T09:05:31;29.80;;;18.23;;
3085;SDS011;52812;48.960;9.108;2023-02-23T09:07:57;26.83;;;17.63;;
3085;SDS011;52812;48.960;9.108;2023-02-23T09:10:23;27.20;;;17.37;;
3085;SDS011;52812;48.960;9.108;2023-02-23T09:12:51;30.17;;;16.93;;
3085;SDS011;52812;48.960;9.108;2023-02-23T09:15:17;25.90;;;17.07;;
3085;SDS011;52812;48.960;9.108;2023-02-23T09:17:43;26.60;;;17.67;;
3085;SDS011;52812;48.960;9.108;2023-02-23T09:20:11;22.17;;;15.67;;
3085;SDS011;52812;48.960;9.108;2023-02-23T09:22:42;25.67;;;16.40;;
3085;SDS011;52812;48.960;9.108;2023-02-23T09:25:13;31.20;;;16.93;;
3085;SDS011;52812;48.960;9.108;2023-02-23T09:27:43;26.37;;;16.10;;
3085;SDS011;52812;48.960;9.108;2023-02-23T09:30:11;25.83;;;16.27;;
3085;SDS011;52812;48.960;9.108;2023-02-23T09:32:42;27.13;;;16.03;;
3085;SDS011;52812;48.960;9.108;2023-02-23T09:35:09;21.90;;;14.50;;
3085;SDS011;52812;48.960;9.108;2023-02-23T09:37:35;22.50;;;14.20;;
3085;SDS011;52812;48.960;9.108;2023-02-23T09:40:00;20.80;;;12.83;;
3085;SDS011;52812;48.960;9.108;2023-02-23T09:50:31;23.87;;;14.47;;
3085;SDS011;52812;48.960;9.108;2023-02-23T09:53:03;22.50;;;14.70;;
3085;SDS011;52812;48.960;9.108;2023-02-23T09:55:51;18.70;;;13.07;;
3085;SDS011;52812;48.960;9.108;2023-02-23T09:58:23;22.60;;;13.67;;
3085;SDS011;52812;48.960;9.108;2023-02-23T10:00:54;19.30;;;12.30;;
3085;SDS011;52812;48.960;9.108;2023-02-23T10:03:33;20.30;;;12.50;;
3085;SDS011;52812;48.960;9.108;2023-02-23T10:06:05;17.80;;;12.00;;
3085;SDS011;52812;48.960;9.108;2023-02-23T10:08:42;15.80;;;10.93;;
3085;SDS011;52812;48.960;9.108;2023-02-23T10:11:42;14.83;;;10.33;;
3085;SDS011;52812;48.960;9.108;2023-02-23T10:14:21;17.23;;;10.10;;
3085;SDS011;52812;48.960;9.108;2023-02-23T10:22:42;15.73;;;10.20;;
3085;SDS011;52812;48.960;9.108;2023-02-23T10:25:13;15.33;;;9.70;;
3085;SDS011;52812;48.960;9.108;2023-02-23T10:27:44;15.97;;;9.87;;
3085;SDS011;52812;48.960;9.108;2023-02-23T10:30:22;16.27;;;10.57;;
3085;SDS011;52812;48.960;9.108;2023-02-23T10:33:02;16.20;;;10.40;;
3085;SDS011;52812;48.960;9.108;2023-02-23T10:35:29;15.57;;;10.70;;
3085;SDS011;52812;48.960;9.108;2023-02-23T10:37:56;16.20;;;10.33;;
3085;SDS011;52812;48.960;9.108;2023-02-23T10:40:24;14.23;;;8.90;;
3085;SDS011;52812;48.960;9.108;2023-02-23T10:42:53;15.70;;;8.73;;
3085;SDS011;52812;48.960;9.108;2023-02-23T10:45:23;15.47;;;9.63;;
3085;SDS011;52812;48.960;9.108;2023-02-23T10:50:22;14.00;;;9.40;;
3085;SDS011;52812;48.960;9.108;2023-02-23T10:52:53;12.70;;;9.00;;
3085;SDS011;52812;48.960;9.108;2023-02-23T10:55:29;11.50;;;8.60;;
3085;SDS011;52812;48.960;9.108;2023-02-23T10:58:29;12.63;;;8.10;;
3085;SDS011;52812;48.960;9.108;2023-02-23T11:00:57;11.10;;;7.60;;
3085;SDS011;52812;48.960;9.108;2023-02-23T11:03:38;12.83;;;7.70;;
3085;SDS011;52812;48.960;9.108;2023-02-23T11:06:32;13.00;;;7.80;;
3085;SDS011;52812;48.960;9.108;2023-02-23T11:09:21;12.90;;;7.93;;
3085;SDS011;52812;48.960;9.108;2023-02-23T11:14:25;11.80;;;7.27;;
3085;SDS011;52812;48.960;9.108;2023-02-23T11:16:52;15.10;;;8.43;;
3085;SDS011;52812;48.960;9.108;2023-02-23T11:19:23;13.07;;;7.37;;
3085;SDS011;52812;48.960;9.108;2023-02-23T11:22:00;8.20;;;5.43;;
3085;SDS011;52812;48.960;9.108;2023-02-23T11:24:27;8.50;;;5.40;;
3085;SDS011;52812;48.960;9.108;2023-02-23T11:26:57;6.63;;;4.70;;
3085;SDS011;52812;48.960;9.108;2023-02-23T11:29:29;8.90;;;5.90;;
3085;SDS011;52812;48.960;9.108;2023-02-23T11:32:07;7.83;;;5.00;;
3085;SDS011;52812;48.960;9.108;2023-02-23T11:34:37;8.23;;;4.60;;
3085;SDS011;52812;48.960;9.108;2023-02-23T11:39:51;8.80;;;5.07;;
3085;SDS011;52812;48.960;9.108;2023-02-23T11:42:22;7.20;;;4.30;;
3085;SDS011;52812;48.960;9.108;2023-02-23T11:47:33;5.70;;;3.97;;
3085;SDS011;52812;48.960;9.108;2023-02-23T11:50:04;7.47;;;4.63;;
3085;SDS011;52812;48.960;9.108;2023-02-23T11:52:30;7.10;;;4.07;;
3085;SDS011;52812;48.960;9.108;2023-02-23T11:55:01;9.27;;;4.60;;
3085;SDS011;52812;48.960;9.108;2023-02-23T11:57:30;6.93;;;4.27;;
3085;SDS011;52812;48.960;9.108;2023-02-23T11:59:59;7.00;;;4.00;;
3085;SDS011;52812;48.960;9.108;2023-02-23T12:02:32;5.73;;;4.40;;
3085;SDS011;52812;48.960;9.108;2023-02-23T12:05:16;7.00;;;4.70;;
3085;SDS011;52812;48.960;9.108;2023-02-23T12:10:17;5.93;;;3.93;;
3085;SDS011;52812;48.960;9.108;2023-02-23T12:21:56;5.00;;;3.27;;
3085;SDS011;52812;48.960;9.108;2023-02-23T12:27:15;7.07;;;3.60;;
3085;SDS011;52812;48.960;9.108;2023-02-23T12:30:11;7.33;;;3.60;;
3085;SDS011;52812;48.960;9.108;2023-02-23T12:32:50;5.80;;;3.90;;
3085;SDS011;52812;48.960;9.108;2023-02-23T12:37:53;6.67;;;3.90;;
3085;SDS011;52812;48.960;9.108;2023-02-23T12:40:26;6.63;;;3.30;;
3085;SDS011;52812;48.960;9.108;2023-02-23T12:45:33;5.37;;;4.03;;
3085;SDS011;52812;48.960;9.108;2023-02-23T12:51:38;7.53;;;4.63;;
3085;SDS011;52812;48.960;9.108;2023-02-23T12:54:10;9.70;;;4.43;;
3085;SDS011;52812;48.960;9.108;2023-02-23T12:56:48;7.07;;;4.67;;
3085;SDS011;52812;48.960;9.108;2023-02-23T13:02:21;10.70;;;5.37;;
3085;SDS011;52812;48.960;9.108;2023-02-23T13:12:51;10.13;;;5.43;;
3085;SDS011;52812;48.960;9.108;2023-02-23T13:18:44;9.80;;;4.90;;
3085;SDS011;52812;48.960;9.108;2023-02-23T13:21:24;8.33;;;4.90;;
3085;SDS011;52812;48.960;9.108;2023-02-23T13:24:00;9.20;;;5.00;;
3085;SDS011;52812;48.960;9.108;2023-02-23T13:29:22;9.33;;;5.50;;
3085;SDS011;52812;48.960;9.108;2023-02-23T13:31:55;10.20;;;5.60;;
3085;SDS011;52812;48.960;9.108;2023-02-23T13:34:25;8.77;;;5.40;;
3085;SDS011;52812;48.960;9.108;2023-02-23T13:36:59;9.23;;;5.83;;
3085;SDS011;52812;48.960;9.108;2023-02-23T13:39:39;9.57;;;5.60;;
3085;SDS011;52812;48.960;9.108;2023-02-23T13:42:47;9.27;;;5.93;;
3085;SDS011;52812;48.960;9.108;2023-02-23T13:45:26;11.67;;;6.03;;
3085;SDS011;52812;48.960;9.108;2023-02-23T13:51:08;7.77;;;5.43;;
3085;SDS011;52812;48.960;9.108;2023-02-23T13:53:43;11.00;;;5.87;;
3085;SDS011;52812;48.960;9.108;2023-02-23T13:56:19;7.57;;;5.60;;
3085;SDS011;52812;48.960;9.108;2023-02-23T13:58:50;9.53;;;5.77;;
3085;SDS011;52812;48.960;9.108;2023-02-23T14:01:23;12.03;;;6.10;;
3085;SDS011;52812;48.960;9.108;2023-02-23T14:03:56;11.20;;;6.40;;
3085;SDS011;52812;48.960;9.108;2023-02-23T14:06:28;12.50;;;5.27;;
3085;SDS011;52812;48.960;9.108;2023-02-23T14:09:17;11.40;;;6.13;;
3085;SDS011;52812;48.960;9.108;2023-02-23T14:11:48;9.23;;;5.57;;
3085;SDS011;52812;48.960;9.108;2023-02-23T14:19:37;6.73;;;4.73;;
3085;SDS011;52812;48.960;9.108;2023-02-23T14:22:29;7.87;;;5.20;;
3085;SDS011;52812;48.960;9.108;2023-02-23T14:25:42;9.47;;;5.20;;
3085;SDS011;52812;48.960;9.108;2023-02-23T14:27:59;8.27;;;5.27;;
3085;SDS011;52812;48.960;9.108;2023-02-23T14:30:26;6.23;;;4.43;;
3085;SDS011;52812;48.960;9.108;2023-02-23T14:32:54;6.43;;;4.67;;
3085;SDS011;52812;48.960;9.108;2023-02-23T14:37:58;11.23;;;5.67;;
3085;SDS011;52812;48.960;9.108;2023-02-23T14:40:39;8.53;;;5.47;;
3085;SDS011;52812;48.960;9.108;2023-02-23T14:46:10;8.20;;;6.50;;
3085;SDS011;52812;48.960;9.108;2023-02-23T14:48:54;10.40;;;6.27;;
3085;SDS011;52812;48.960;9.108;2023-02-23T14:51:37;9.70;;;6.47;;
3085;SDS011;52812;48.960;9.108;2023-02-23T14:54:10;10.77;;;5.30;;
3085;SDS011;52812;48.960;9.108;2023-02-23T14:56:44;15.57;;;10.07;;
3085;SDS011;52812;48.960;9.108;2023-02-23T14:59:18;13.90;;;9.60;;
3085;SDS011;52812;48.960;9.108;2023-02-23T15:01:46;10.77;;;6.97;;
3085;SDS011;52812;48.960;9.108;2023-02-23T15:04:18;12.80;;;6.83;;
3085;SDS011;52812;48.960;9.108;2023-02-23T15:06:44;11.30;;;7.27;;
3085;SDS011;52812;48.960;9.108;2023-02-23T15:09:15;11.50;;;7.40;;
3085;SDS011;52812;48.960;9.108;2023-02-23T15:11:43;10.03;;;6.43;;
3085;SDS011;52812;48.960;9.108;2023-02-23T15:14:14;10.90;;;5.80;;
3085;SDS011;52812;48.960;9.108;2023-02-23T15:16:41;10.03;;;6.23;;
3085;SDS011;52812;48.960;9.108;2023-02-23T15:19:09;10.37;;;5.90;;
3085;SDS011;52812;48.960;9.108;2023-02-23T15:21:48;11.20;;;6.87;;
3085;SDS011;52812;48.960;9.108;2023-02-23T15:24:15;10.67;;;8.10;;
3085;SDS011;52812;48.960;9.108;2023-02-23T15:26:43;13.37;;;8.63;;
3085;SDS011;52812;48.960;9.108;2023-02-23T15:31:35;9.70;;;6.83;;
3085;SDS011;52812;48.960;9.108;2023-02-23T15:34:06;11.87;;;7.60;;
3085;SDS011;52812;48.960;9.108;2023-02-23T15:36:35;11.00;;;6.40;;
3085;SDS011;52812;48.960;9.108;2023-02-23T15:39:04;7.87;;;6.10;;
3085;SDS011;52812;48.960;9.108;2023-02-23T15:41:32;9.50;;;6.10;;
3085;SDS011;52812;48.960;9.108;2023-02-23T15:44:08;8.97;;;7.13;;
3085;SDS011;52812;48.960;9.108;2023-02-23T15:46:40;10.40;;;6.13;;
3085;SDS011;52812;48.960;9.108;2023-02-23T15:49:10;11.07;;;6.83;;
3085;SDS011;52812;48.960;9.108;2023-02-23T15:51:39;12.33;;;6.83;;
3085;SDS011;52812;48.960;9.108;2023-02-23T15:54:15;15.37;;;7.47;;
3085;SDS011;52812;48.960;9.108;2023-02-23T15:56:49;11.40;;;7.27;;
3085;SDS011;52812;48.960;9.108;2023-02-23T15:59:22;13.67;;;7.80;;
3085;SDS011;52812;48.960;9.108;2023-02-23T16:01:52;13.73;;;7.87;;
3085;SDS011;52812;48.960;9.108;2023-02-23T16:04:19;14.73;;;8.67;;
3085;SDS011;52812;48.960;9.108;2023-02-23T16:14:24;13.33;;;8.10;;
3085;SDS011;52812;48.960;9.108;2023-02-23T16:16:56;14.13;;;7.77;;
3085;SDS011;52812;48.960;9.108;2023-02-23T16:19:22;10.73;;;6.57;;
3085;SDS011;52812;48.960;9.108;2023-02-23T16:21:50;11.43;;;7.53;;
3085;SDS011;52812;48.960;9.108;2023-02-23T16:24:18;11.07;;;7.80;;
3085;SDS011;52812;48.960;9.108;2023-02-23T16:27:04;15.20;;;8.07;;
3085;SDS011;52812;48.960;9.108;2023-02-23T16:29:39;10.57;;;7.00;;
3085;SDS011;52812;48.960;9.108;2023-02-23T16:32:09;14.60;;;8.30;;
3085;SDS011;52812;48.960;9.108;2023-02-23T16:34:46;11.20;;;7.77;;
3085;SDS011;52812;48.960;9.108;2023-02-23T16:37:18;15.27;;;8.57;;
3085;SDS011;52812;48.960;9.108;2023-02-23T16:39:55;14.23;;;9.40;;
3085;SDS011;52812;48.960;9.108;2023-02-23T16:42:27;16.00;;;8.97;;
3085;SDS011;52812;48.960;9.108;2023-02-23T16:44:56;16.60;;;10.77;;
3085;SDS011;52812;48.960;9.108;2023-02-23T16:49:48;20.50;;;12.10;;
3085;SDS011;52812;48.960;9.108;2023-02-23T16:52:16;22.30;;;13.33;;
3085;SDS011;52812;48.960;9.108;2023-02-23T16:54:46;20.00;;;12.43;;
3085;SDS011;52812;48.960;9.108;2023-02-23T16:57:25;24.13;;;15.10;;
3085;SDS011;52812;48.960;9.108;2023-02-23T16:59:53;23.43;;;16.40;;
3085;SDS011;52812;48.960;9.108;2023-02-23T17:02:21;24.87;;;15.47;;
3085;SDS011;52812;48.960;9.108;2023-02-23T17:04:48;20.20;;;12.30;;
3085;SDS011;52812;48.960;9.108;2023-02-23T17:07:15;17.00;;;10.50;;
3085;SDS011;52812;48.960;9.108;2023-02-23T17:09:42;20.87;;;11.97;;
3085;SDS011;52812;48.960;9.108;2023-02-23T17:12:11;14.40;;;9.80;;